sensor_id;sensor_type;location;lat;lon;timestamp;pressure;altitude;pressure_sealevel;temperature;humidity
69689;BME280;56932;38.402;-96.176;2023-04-26T00:00:26;97640.86;;;20.69;24.82
69689;BME280;56932;38.402;-96.176;2023-04-26T00:02:52;97644.08;;;20.16;25.74
69689;BME280;56932;38.402;-96.176;2023-04-26T00:05:17;97644.93;;;20.77;25.36
69689;BME280;56932;38.402;-96.176;2023-04-26T00:07:43;97648.81;;;21.20;24.76
69689;BME280;56932;38.402;-96.176;2023-04-26T00:10:09;97648.76;;;20.84;25.10
69689;BME280;56932;38.402;-96.176;2023-04-26T00:12:33;97654.14;;;20.60;25.16
69689;BME280;56932;38.402;-96.176;2023-04-26T00:15:02;97653.45;;;21.07;25.03
69689;BME280;56932;38.402;-96.176;2023-04-26T00:17:24;97652.44;;;21.09;24.96
69689;BME280;56932;38.402;-96.176;2023-04-26T00:19:50;97656.79;;;21.20;24.75
69689;BME280;56932;38.402;-96.176;2023-04-26T00:22:16;97658.71;;;20.49;25.09
69689;BME280;56932;38.402;-96.176;2023-04-26T00:24:41;97659.51;;;20.54;25.47
69689;BME280;56932;38.402;-96.176;2023-04-26T00:27:06;97656.82;;;21.09;24.99
69689;BME280;56932;38.402;-96.176;2023-04-26T00:29:32;97658.29;;;21.34;24.70
69689;BME280;56932;38.402;-96.176;2023-04-26T00:31:57;97654.40;;;20.77;25.20
69689;BME280;56932;38.402;-96.176;2023-04-26T00:34:23;97652.95;;;20.06;24.89
69689;BME280;56932;38.402;-96.176;2023-04-26T00:36:48;97651.14;;;21.23;24.70
69689;BME280;56932;38.402;-96.176;2023-04-26T00:39:14;97654.60;;;20.48;25.74
69689;BME280;56932;38.402;-96.176;2023-04-26T00:41:39;97656.36;;;20.59;25.52
69689;BME280;56932;38.402;-96.176;2023-04-26T00:44:05;97664.85;;;20.83;25.50
69689;BME280;56932;38.402;-96.176;2023-04-26T00:46:30;97664.87;;;20.71;25.28
69689;BME280;56932;38.402;-96.176;2023-04-26T00:48:56;97662.93;;;20.68;25.54
69689;BME280;56932;38.402;-96.176;2023-04-26T00:51:21;97664.85;;;20.74;25.54
69689;BME280;56932;38.402;-96.176;2023-04-26T00:53:47;97667.69;;;20.81;25.42
69689;BME280;56932;38.402;-96.176;2023-04-26T00:56:13;97669.71;;;20.91;24.90
69689;BME280;56932;38.402;-96.176;2023-04-26T00:58:38;97673.10;;;20.94;24.89
69689;BME280;56932;38.402;-96.176;2023-04-26T01:01:03;97677.27;;;20.84;25.19
69689;BME280;56932;38.402;-96.176;2023-04-26T01:03:29;97682.55;;;21.23;25.19
69689;BME280;56932;38.402;-96.176;2023-04-26T01:05:55;97687.10;;;20.88;25.54
69689;BME280;56932;38.402;-96.176;2023-04-26T01:08:21;97691.16;;;20.15;25.60
69689;BME280;56932;38.402;-96.176;2023-04-26T01:10:46;97697.44;;;20.54;25.67
69689;BME280;56932;38.402;-96.176;2023-04-26T01:13:11;97700.39;;;20.58;25.83
69689;BME280;56932;38.402;-96.176;2023-04-26T01:15:36;97702.28;;;21.62;24.88
69689;BME280;56932;38.402;-96.176;2023-04-26T01:18:02;97700.49;;;21.28;25.19
69689;BME280;56932;38.402;-96.176;2023-04-26T01:20:27;97704.86;;;20.77;25.48
69689;BME280;56932;38.402;-96.176;2023-04-26T01:22:53;97705.54;;;21.30;25.18
69689;BME280;56932;38.402;-96.176;2023-04-26T01:25:18;97708.04;;;20.83;25.66
69689;BME280;56932;38.402;-96.176;2023-04-26T01:27:43;97708.51;;;20.79;25.93
69689;BME280;56932;38.402;-96.176;2023-04-26T01:30:10;97711.99;;;21.81;24.62
69689;BME280;56932;38.402;-96.176;2023-04-26T01:32:34;97714.72;;;22.45;24.27
69689;BME280;56932;38.402;-96.176;2023-04-26T01:35:00;97720.13;;;21.97;24.52
69689;BME280;56932;38.402;-96.176;2023-04-26T01:37:25;97728.45;;;22.25;24.29
69689;BME280;56932;38.402;-96.176;2023-04-26T01:39:51;97732.33;;;22.29;24.46
69689;BME280;56932;38.402;-96.176;2023-04-26T01:42:17;97732.06;;;21.78;24.11
69689;BME280;56932;38.402;-96.176;2023-04-26T01:44:42;97737.69;;;21.98;24.33
69689;BME280;56932;38.402;-96.176;2023-04-26T01:47:07;97736.11;;;22.44;24.22
69689;BME280;56932;38.402;-96.176;2023-04-26T01:49:32;97744.76;;;22.12;24.55
69689;BME280;56932;38.402;-96.176;2023-04-26T01:51:59;97742.04;;;22.53;24.16
69689;BME280;56932;38.402;-96.176;2023-04-26T01:54:23;97745.02;;;21.36;24.62
69689;BME280;56932;38.402;-96.176;2023-04-26T01:56:49;97742.79;;;21.91;24.55
69689;BME280;56932;38.402;-96.176;2023-04-26T01:59:14;97741.90;;;22.06;24.81
69689;BME280;56932;38.402;-96.176;2023-04-26T02:01:41;97746.14;;;22.43;24.32
69689;BME280;56932;38.402;-96.176;2023-04-26T02:04:06;97751.16;;;22.39;24.39
69689;BME280;56932;38.402;-96.176;2023-04-26T02:06:31;97753.62;;;22.44;24.13
69689;BME280;56932;38.402;-96.176;2023-04-26T02:08:57;97760.18;;;22.85;23.96
69689;BME280;56932;38.402;-96.176;2023-04-26T02:11:22;97767.84;;;23.00;24.01
69689;BME280;56932;38.402;-96.176;2023-04-26T02:13:48;97772.57;;;23.21;23.83
69689;BME280;56932;38.402;-96.176;2023-04-26T02:16:14;97770.42;;;22.02;24.51
69689;BME280;56932;38.402;-96.176;2023-04-26T02:18:39;97767.18;;;22.16;24.63
69689;BME280;56932;38.402;-96.176;2023-04-26T02:21:07;97767.83;;;22.08;24.45
69689;BME280;56932;38.402;-96.176;2023-04-26T02:23:30;97765.33;;;21.86;24.87
69689;BME280;56932;38.402;-96.176;2023-04-26T02:25:55;97768.36;;;22.12;24.91
69689;BME280;56932;38.402;-96.176;2023-04-26T02:28:21;97778.55;;;21.89;24.21
69689;BME280;56932;38.402;-96.176;2023-04-26T02:30:46;97784.11;;;22.40;24.42
69689;BME280;56932;38.402;-96.176;2023-04-26T02:33:12;97789.98;;;22.58;24.31
69689;BME280;56932;38.402;-96.176;2023-04-26T02:35:37;97789.75;;;23.17;23.96
69689;BME280;56932;38.402;-96.176;2023-04-26T02:38:03;97797.10;;;22.84;24.27
69689;BME280;56932;38.402;-96.176;2023-04-26T02:40:29;97798.72;;;22.72;23.96
69689;BME280;56932;38.402;-96.176;2023-04-26T02:42:54;97804.73;;;22.65;24.41
69689;BME280;56932;38.402;-96.176;2023-04-26T02:45:20;97809.81;;;22.48;24.43
69689;BME280;56932;38.402;-96.176;2023-04-26T02:47:45;97811.28;;;22.68;24.35
69689;BME280;56932;38.402;-96.176;2023-04-26T02:50:11;97811.58;;;21.51;25.10
69689;BME280;56932;38.402;-96.176;2023-04-26T02:52:36;97817.83;;;22.38;24.53
69689;BME280;56932;38.402;-96.176;2023-04-26T02:55:02;97819.24;;;22.18;24.72
69689;BME280;56932;38.402;-96.176;2023-04-26T02:57:27;97820.83;;;22.26;24.85
69689;BME280;56932;38.402;-96.176;2023-04-26T02:59:53;97822.63;;;22.34;24.78
69689;BME280;56932;38.402;-96.176;2023-04-26T03:02:18;97821.47;;;21.02;25.37
69689;BME280;56932;38.402;-96.176;2023-04-26T03:04:44;97821.19;;;21.74;25.35
69689;BME280;56932;38.402;-96.176;2023-04-26T03:07:09;97826.36;;;21.82;25.32
69689;BME280;56932;38.402;-96.176;2023-04-26T03:09:35;97829.32;;;22.15;25.20
69689;BME280;56932;38.402;-96.176;2023-04-26T03:12:00;97832.18;;;21.57;25.72
69689;BME280;56932;38.402;-96.176;2023-04-26T03:14:26;97831.69;;;21.12;25.75
69689;BME280;56932;38.402;-96.176;2023-04-26T03:16:51;97825.62;;;21.50;25.63
69689;BME280;56932;38.402;-96.176;2023-04-26T03:19:17;97826.97;;;21.41;25.70
69689;BME280;56932;38.402;-96.176;2023-04-26T03:21:43;97831.71;;;21.78;25.32
69689;BME280;56932;38.402;-96.176;2023-04-26T03:24:08;97835.50;;;22.10;25.19
69689;BME280;56932;38.402;-96.176;2023-04-26T03:26:33;97841.16;;;21.80;25.28
69689;BME280;56932;38.402;-96.176;2023-04-26T03:28:59;97842.46;;;21.35;25.68
69689;BME280;56932;38.402;-96.176;2023-04-26T03:31:24;97846.83;;;19.87;27.33
69689;BME280;56932;38.402;-96.176;2023-04-26T03:33:50;97846.45;;;21.08;26.17
69689;BME280;56932;38.402;-96.176;2023-04-26T03:36:15;97849.56;;;20.66;25.91
69689;BME280;56932;38.402;-96.176;2023-04-26T03:38:40;97853.26;;;20.68;26.30
69689;BME280;56932;38.402;-96.176;2023-04-26T03:41:06;97855.54;;;21.25;25.98
69689;BME280;56932;38.402;-96.176;2023-04-26T03:43:31;97861.53;;;21.59;25.60
69689;BME280;56932;38.402;-96.176;2023-04-26T03:45:57;97871.57;;;21.59;25.54
69689;BME280;56932;38.402;-96.176;2023-04-26T03:48:22;97877.20;;;20.53;25.90
69689;BME280;56932;38.402;-96.176;2023-04-26T03:50:47;97881.43;;;20.40;26.46
69689;BME280;56932;38.402;-96.176;2023-04-26T03:53:12;97876.95;;;21.27;25.64
69689;BME280;56932;38.402;-96.176;2023-04-26T03:55:38;97877.70;;;21.09;26.01
69689;BME280;56932;38.402;-96.176;2023-04-26T03:58:03;97881.15;;;20.40;26.65
69689;BME280;56932;38.402;-96.176;2023-04-26T04:00:29;97877.57;;;20.93;25.95
69689;BME280;56932;38.402;-96.176;2023-04-26T04:02:54;97879.50;;;21.16;25.71
69689;BME280;56932;38.402;-96.176;2023-04-26T04:05:20;97877.38;;;20.82;26.04
69689;BME280;56932;38.402;-96.176;2023-04-26T04:07:45;97876.68;;;21.03;26.04
69689;BME280;56932;38.402;-96.176;2023-04-26T04:10:11;97875.52;;;21.03;25.83
69689;BME280;56932;38.402;-96.176;2023-04-26T04:12:36;97879.18;;;19.78;27.20
69689;BME280;56932;38.402;-96.176;2023-04-26T04:15:02;97880.83;;;20.63;26.17
69689;BME280;56932;38.402;-96.176;2023-04-26T04:17:27;97877.54;;;20.85;25.93
69689;BME280;56932;38.402;-96.176;2023-04-26T04:19:52;97875.48;;;20.53;26.67
69689;BME280;56932;38.402;-96.176;2023-04-26T04:22:18;97874.38;;;20.14;26.17
69689;BME280;56932;38.402;-96.176;2023-04-26T04:24:43;97876.86;;;20.75;26.01
69689;BME280;56932;38.402;-96.176;2023-04-26T04:27:09;97881.38;;;20.49;26.68
69689;BME280;56932;38.402;-96.176;2023-04-26T04:29:34;97891.36;;;21.18;26.03
69689;BME280;56932;38.402;-96.176;2023-04-26T04:31:59;97900.27;;;20.98;25.96
69689;BME280;56932;38.402;-96.176;2023-04-26T04:34:24;97906.66;;;19.86;26.40
69689;BME280;56932;38.402;-96.176;2023-04-26T04:36:50;97902.82;;;20.95;25.74
69689;BME280;56932;38.402;-96.176;2023-04-26T04:39:15;97899.30;;;20.58;26.35
69689;BME280;56932;38.402;-96.176;2023-04-26T04:41:41;97889.10;;;20.73;26.49
69689;BME280;56932;38.402;-96.176;2023-04-26T04:44:06;97884.61;;;21.30;25.86
69689;BME280;56932;38.402;-96.176;2023-04-26T04:46:31;97885.37;;;20.34;26.33
69689;BME280;56932;38.402;-96.176;2023-04-26T04:48:57;97882.27;;;20.95;26.19
69689;BME280;56932;38.402;-96.176;2023-04-26T04:51:22;97880.34;;;20.65;26.26
69689;BME280;56932;38.402;-96.176;2023-04-26T04:53:47;97877.31;;;20.17;26.74
69689;BME280;56932;38.402;-96.176;2023-04-26T04:56:13;97869.96;;;20.74;25.88
69689;BME280;56932;38.402;-96.176;2023-04-26T04:58:38;97863.40;;;20.57;26.10
69689;BME280;56932;38.402;-96.176;2023-04-26T05:01:04;97857.74;;;21.11;26.01
69689;BME280;56932;38.402;-96.176;2023-04-26T05:03:29;97851.10;;;20.92;25.98
69689;BME280;56932;38.402;-96.176;2023-04-26T05:05:55;97848.69;;;19.89;26.93
69689;BME280;56932;38.402;-96.176;2023-04-26T05:08:20;97845.45;;;18.52;27.65
69689;BME280;56932;38.402;-96.176;2023-04-26T05:10:45;97842.95;;;20.02;26.89
69689;BME280;56932;38.402;-96.176;2023-04-26T05:13:11;97838.69;;;21.13;26.03
69689;BME280;56932;38.402;-96.176;2023-04-26T05:15:37;97844.59;;;20.66;26.18
69689;BME280;56932;38.402;-96.176;2023-04-26T05:18:02;97839.15;;;20.98;26.09
69689;BME280;56932;38.402;-96.176;2023-04-26T05:20:27;97838.66;;;19.16;27.36
69689;BME280;56932;38.402;-96.176;2023-04-26T05:22:52;97834.91;;;20.37;26.24
69689;BME280;56932;38.402;-96.176;2023-04-26T05:25:17;97833.53;;;20.69;26.44
69689;BME280;56932;38.402;-96.176;2023-04-26T05:27:43;97838.47;;;20.49;26.31
69689;BME280;56932;38.402;-96.176;2023-04-26T05:30:10;97836.29;;;20.81;26.00
69689;BME280;56932;38.402;-96.176;2023-04-26T05:32:34;97835.72;;;20.02;26.50
69689;BME280;56932;38.402;-96.176;2023-04-26T05:34:59;97838.47;;;20.93;26.14
69689;BME280;56932;38.402;-96.176;2023-04-26T05:37:25;97837.27;;;21.08;25.96
69689;BME280;56932;38.402;-96.176;2023-04-26T05:39:50;97844.68;;;20.78;26.25
69689;BME280;56932;38.402;-96.176;2023-04-26T05:42:16;97840.42;;;20.32;25.99
69689;BME280;56932;38.402;-96.176;2023-04-26T05:44:41;97846.20;;;19.88;26.63
69689;BME280;56932;38.402;-96.176;2023-04-26T05:47:08;97840.47;;;20.42;26.34
69689;BME280;56932;38.402;-96.176;2023-04-26T05:49:32;97842.17;;;20.42;26.63
69689;BME280;56932;38.402;-96.176;2023-04-26T05:51:58;97843.14;;;20.90;26.15
69689;BME280;56932;38.402;-96.176;2023-04-26T05:54:22;97846.30;;;19.43;26.63
69689;BME280;56932;38.402;-96.176;2023-04-26T05:56:48;97846.04;;;20.56;26.24
69689;BME280;56932;38.402;-96.176;2023-04-26T05:59:13;97845.98;;;20.51;26.27
69689;BME280;56932;38.402;-96.176;2023-04-26T06:01:38;97847.88;;;20.40;26.38
69689;BME280;56932;38.402;-96.176;2023-04-26T06:04:04;97842.42;;;20.63;26.44
69689;BME280;56932;38.402;-96.176;2023-04-26T06:06:30;97840.09;;;19.35;26.72
69689;BME280;56932;38.402;-96.176;2023-04-26T06:08:55;97838.47;;;20.64;25.92
69689;BME280;56932;38.402;-96.176;2023-04-26T06:11:20;97837.97;;;20.28;26.66
69689;BME280;56932;38.402;-96.176;2023-04-26T06:13:46;97839.17;;;20.66;26.12
69689;BME280;56932;38.402;-96.176;2023-04-26T06:16:12;97844.40;;;20.75;25.80
69689;BME280;56932;38.402;-96.176;2023-04-26T06:18:37;97851.84;;;20.17;26.85
69689;BME280;56932;38.402;-96.176;2023-04-26T06:21:02;97852.72;;;20.80;26.29
69689;BME280;56932;38.402;-96.176;2023-04-26T06:23:28;97855.63;;;20.70;26.19
69689;BME280;56932;38.402;-96.176;2023-04-26T06:25:53;97846.29;;;20.68;26.45
69689;BME280;56932;38.402;-96.176;2023-04-26T06:28:19;97835.65;;;20.12;26.13
69689;BME280;56932;38.402;-96.176;2023-04-26T06:30:44;97834.84;;;20.72;26.20
69689;BME280;56932;38.402;-96.176;2023-04-26T06:33:09;97826.30;;;20.63;26.30
69689;BME280;56932;38.402;-96.176;2023-04-26T06:35:39;97824.74;;;20.82;26.05
69689;BME280;56932;38.402;-96.176;2023-04-26T06:38:00;97830.21;;;20.26;26.96
69689;BME280;56932;38.402;-96.176;2023-04-26T06:40:26;97826.85;;;20.13;26.38
69689;BME280;56932;38.402;-96.176;2023-04-26T06:42:52;97827.79;;;20.67;26.34
69689;BME280;56932;38.402;-96.176;2023-04-26T06:45:17;97824.80;;;20.53;26.45
69689;BME280;56932;38.402;-96.176;2023-04-26T06:47:43;97818.60;;;20.89;26.36
69689;BME280;56932;38.402;-96.176;2023-04-26T06:50:09;97815.08;;;20.69;26.54
69689;BME280;56932;38.402;-96.176;2023-04-26T06:52:33;97814.93;;;20.48;26.24
69689;BME280;56932;38.402;-96.176;2023-04-26T06:55:01;97817.25;;;20.77;26.15
69689;BME280;56932;38.402;-96.176;2023-04-26T06:57:24;97823.48;;;20.70;26.51
69689;BME280;56932;38.402;-96.176;2023-04-26T06:59:50;97824.25;;;20.75;26.20
69689;BME280;56932;38.402;-96.176;2023-04-26T07:02:16;97823.96;;;20.39;26.13
69689;BME280;56932;38.402;-96.176;2023-04-26T07:04:41;97817.94;;;20.74;26.21
69689;BME280;56932;38.402;-96.176;2023-04-26T07:07:06;97817.88;;;20.22;26.97
69689;BME280;56932;38.402;-96.176;2023-04-26T07:09:32;97813.18;;;21.08;26.07
69689;BME280;56932;38.402;-96.176;2023-04-26T07:11:57;97814.05;;;20.66;26.58
69689;BME280;56932;38.402;-96.176;2023-04-26T07:14:23;97812.63;;;19.08;27.15
69689;BME280;56932;38.402;-96.176;2023-04-26T07:16:48;97808.03;;;20.94;26.26
69689;BME280;56932;38.402;-96.176;2023-04-26T07:19:13;97810.81;;;20.25;26.91
69689;BME280;56932;38.402;-96.176;2023-04-26T07:21:39;97816.75;;;20.76;26.36
69689;BME280;56932;38.402;-96.176;2023-04-26T07:24:05;97823.52;;;20.72;26.42
69689;BME280;56932;38.402;-96.176;2023-04-26T07:26:30;97822.31;;;20.20;26.45
69689;BME280;56932;38.402;-96.176;2023-04-26T07:28:55;97815.30;;;20.35;26.50
69689;BME280;56932;38.402;-96.176;2023-04-26T07:31:21;97813.90;;;20.46;26.67
69689;BME280;56932;38.402;-96.176;2023-04-26T07:33:46;97810.11;;;20.63;26.45
69689;BME280;56932;38.402;-96.176;2023-04-26T07:36:12;97809.69;;;20.16;26.69
69689;BME280;56932;38.402;-96.176;2023-04-26T07:38:37;97807.05;;;20.10;26.78
69689;BME280;56932;38.402;-96.176;2023-04-26T07:41:03;97802.64;;;20.96;26.15
69689;BME280;56932;38.402;-96.176;2023-04-26T07:43:30;97806.69;;;20.72;26.58
69689;BME280;56932;38.402;-96.176;2023-04-26T07:45:54;97808.88;;;19.97;27.07
69689;BME280;56932;38.402;-96.176;2023-04-26T07:48:19;97806.20;;;20.21;26.62
69689;BME280;56932;38.402;-96.176;2023-04-26T07:50:45;97801.61;;;20.40;26.69
69689;BME280;56932;38.402;-96.176;2023-04-26T07:53:10;97795.79;;;20.56;26.51
69689;BME280;56932;38.402;-96.176;2023-04-26T07:55:36;97789.80;;;20.70;26.40
69689;BME280;56932;38.402;-96.176;2023-04-26T07:58:01;97790.95;;;20.25;26.84
69689;BME280;56932;38.402;-96.176;2023-04-26T08:00:27;97791.50;;;19.70;26.66
69689;BME280;56932;38.402;-96.176;2023-04-26T08:02:52;97790.58;;;20.03;27.10
69689;BME280;56932;38.402;-96.176;2023-04-26T08:05:18;97786.93;;;20.12;26.98
69689;BME280;56932;38.402;-96.176;2023-04-26T08:07:43;97786.71;;;20.72;26.35
69689;BME280;56932;38.402;-96.176;2023-04-26T08:10:10;97795.37;;;20.43;26.60
69689;BME280;56932;38.402;-96.176;2023-04-26T08:12:35;97798.82;;;19.84;26.73
69689;BME280;56932;38.402;-96.176;2023-04-26T08:14:59;97801.29;;;20.09;26.65
69689;BME280;56932;38.402;-96.176;2023-04-26T08:17:25;97799.19;;;20.93;26.32
69689;BME280;56932;38.402;-96.176;2023-04-26T08:19:50;97799.59;;;20.81;26.42
69689;BME280;56932;38.402;-96.176;2023-04-26T08:22:16;97799.77;;;20.16;26.36
69689;BME280;56932;38.402;-96.176;2023-04-26T08:24:41;97804.73;;;20.84;26.15
69689;BME280;56932;38.402;-96.176;2023-04-26T08:27:07;97808.14;;;20.46;26.51
69689;BME280;56932;38.402;-96.176;2023-04-26T08:29:32;97807.39;;;20.52;26.46
69689;BME280;56932;38.402;-96.176;2023-04-26T08:31:57;97806.18;;;19.81;27.40
69689;BME280;56932;38.402;-96.176;2023-04-26T08:34:23;97805.28;;;19.49;26.79
69689;BME280;56932;38.402;-96.176;2023-04-26T08:36:48;97807.17;;;20.22;26.72
69689;BME280;56932;38.402;-96.176;2023-04-26T08:39:14;97809.17;;;20.35;26.83
69689;BME280;56932;38.402;-96.176;2023-04-26T08:41:43;97816.50;;;20.47;26.46
69689;BME280;56932;38.402;-96.176;2023-04-26T08:44:05;97815.90;;;20.06;27.28
69689;BME280;56932;38.402;-96.176;2023-04-26T08:46:33;97815.59;;;19.23;27.41
69689;BME280;56932;38.402;-96.176;2023-04-26T08:49:04;97820.86;;;20.59;26.36
69689;BME280;56932;38.402;-96.176;2023-04-26T08:51:21;97820.40;;;20.10;26.81
69689;BME280;56932;38.402;-96.176;2023-04-26T08:53:47;97817.75;;;20.30;26.57
69689;BME280;56932;38.402;-96.176;2023-04-26T08:56:13;97821.76;;;19.54;27.32
69689;BME280;56932;38.402;-96.176;2023-04-26T08:58:38;97825.53;;;19.88;27.01
69689;BME280;56932;38.402;-96.176;2023-04-26T09:01:03;97836.50;;;20.08;26.76
69689;BME280;56932;38.402;-96.176;2023-04-26T09:03:29;97839.11;;;19.24;27.55
69689;BME280;56932;38.402;-96.176;2023-04-26T09:05:54;97839.34;;;20.29;26.54
69689;BME280;56932;38.402;-96.176;2023-04-26T09:08:20;97836.26;;;19.18;26.94
69689;BME280;56932;38.402;-96.176;2023-04-26T09:10:45;97837.98;;;20.19;26.61
69689;BME280;56932;38.402;-96.176;2023-04-26T09:13:11;97842.33;;;20.08;26.70
69689;BME280;56932;38.402;-96.176;2023-04-26T09:15:36;97847.03;;;20.21;26.60
69689;BME280;56932;38.402;-96.176;2023-04-26T09:20:30;97852.88;;;18.75;27.56
69689;BME280;56932;38.402;-96.176;2023-04-26T09:23:02;97858.76;;;19.73;27.00
69689;BME280;56932;38.402;-96.176;2023-04-26T09:27:44;97865.50;;;20.32;26.63
69689;BME280;56932;38.402;-96.176;2023-04-26T09:30:13;97864.59;;;20.20;26.50
69689;BME280;56932;38.402;-96.176;2023-04-26T09:32:43;97865.27;;;20.13;26.59
69689;BME280;56932;38.402;-96.176;2023-04-26T09:35:00;97866.62;;;19.46;27.25
69689;BME280;56932;38.402;-96.176;2023-04-26T09:37:25;97865.14;;;19.82;26.98
69689;BME280;56932;38.402;-96.176;2023-04-26T09:39:51;97861.31;;;19.75;27.00
69689;BME280;56932;38.402;-96.176;2023-04-26T09:42:17;97857.82;;;19.41;26.90
69689;BME280;56932;38.402;-96.176;2023-04-26T09:44:42;97856.77;;;19.82;26.98
69689;BME280;56932;38.402;-96.176;2023-04-26T09:47:08;97853.69;;;20.51;26.69
69689;BME280;56932;38.402;-96.176;2023-04-26T09:52:02;97852.51;;;19.29;27.69
69689;BME280;56932;38.402;-96.176;2023-04-26T09:59:14;97849.56;;;19.88;26.86
69689;BME280;56932;38.402;-96.176;2023-04-26T10:01:39;97847.88;;;20.45;26.52
69689;BME280;56932;38.402;-96.176;2023-04-26T10:04:05;97841.70;;;19.68;26.76
69689;BME280;56932;38.402;-96.176;2023-04-26T10:06:31;97844.86;;;20.15;26.55
69689;BME280;56932;38.402;-96.176;2023-04-26T10:08:56;97841.18;;;19.76;26.93
69689;BME280;56932;38.402;-96.176;2023-04-26T10:11:22;97841.90;;;19.94;26.76
69689;BME280;56932;38.402;-96.176;2023-04-26T10:13:49;97838.93;;;20.23;26.93
69689;BME280;56932;38.402;-96.176;2023-04-26T10:16:13;97838.14;;;19.95;26.71
69689;BME280;56932;38.402;-96.176;2023-04-26T10:18:38;97833.78;;;19.74;26.95
69689;BME280;56932;38.402;-96.176;2023-04-26T10:21:09;97834.03;;;19.91;26.77
69689;BME280;56932;38.402;-96.176;2023-04-26T10:23:29;97829.51;;;20.25;26.65
69689;BME280;56932;38.402;-96.176;2023-04-26T10:25:56;97823.37;;;19.67;27.02
69689;BME280;56932;38.402;-96.176;2023-04-26T10:30:53;97826.25;;;20.19;26.75
69689;BME280;56932;38.402;-96.176;2023-04-26T10:33:11;97828.49;;;19.82;27.30
69689;BME280;56932;38.402;-96.176;2023-04-26T10:35:36;97821.72;;;18.55;28.42
69689;BME280;56932;38.402;-96.176;2023-04-26T10:38:07;97828.86;;;20.34;26.63
69689;BME280;56932;38.402;-96.176;2023-04-26T10:40:29;97832.20;;;19.00;27.43
69689;BME280;56932;38.402;-96.176;2023-04-26T10:45:24;97827.72;;;19.92;26.98
69689;BME280;56932;38.402;-96.176;2023-04-26T10:47:44;97822.68;;;20.14;27.00
69689;BME280;56932;38.402;-96.176;2023-04-26T10:50:11;97819.58;;;20.08;26.60
69689;BME280;56932;38.402;-96.176;2023-04-26T10:52:36;97816.05;;;20.33;26.33
69689;BME280;56932;38.402;-96.176;2023-04-26T10:55:01;97814.40;;;20.09;26.55
69689;BME280;56932;38.402;-96.176;2023-04-26T11:04:51;97787.14;;;19.66;27.02
69689;BME280;56932;38.402;-96.176;2023-04-26T11:07:08;97782.94;;;19.73;26.95
69689;BME280;56932;38.402;-96.176;2023-04-26T11:09:35;97779.99;;;19.99;26.88
69689;BME280;56932;38.402;-96.176;2023-04-26T11:11:59;97778.50;;;20.01;26.82
69689;BME280;56932;38.402;-96.176;2023-04-26T11:14:25;97780.75;;;19.80;26.79
69689;BME280;56932;38.402;-96.176;2023-04-26T11:16:50;97775.76;;;20.17;26.65
69689;BME280;56932;38.402;-96.176;2023-04-26T11:19:16;97780.76;;;19.03;27.15
69689;BME280;56932;38.402;-96.176;2023-04-26T11:21:41;97784.87;;;20.22;26.65
69689;BME280;56932;38.402;-96.176;2023-04-26T11:24:08;97796.73;;;20.16;26.90
69689;BME280;56932;38.402;-96.176;2023-04-26T11:26:33;97812.04;;;19.86;26.72
69689;BME280;56932;38.402;-96.176;2023-04-26T11:28:58;97816.38;;;20.23;26.57
69689;BME280;56932;38.402;-96.176;2023-04-26T11:31:23;97810.81;;;20.24;26.77
69689;BME280;56932;38.402;-96.176;2023-04-26T11:33:49;97809.49;;;20.15;26.61
69689;BME280;56932;38.402;-96.176;2023-04-26T11:36:15;97810.68;;;19.06;26.99
69689;BME280;56932;38.402;-96.176;2023-04-26T11:38:40;97810.40;;;19.92;26.60
69689;BME280;56932;38.402;-96.176;2023-04-26T11:41:05;97813.69;;;19.83;26.67
69689;BME280;56932;38.402;-96.176;2023-04-26T11:43:34;97818.42;;;19.96;26.95
69689;BME280;56932;38.402;-96.176;2023-04-26T11:45:59;97824.26;;;20.02;26.94
69689;BME280;56932;38.402;-96.176;2023-04-26T11:48:22;97829.75;;;19.26;26.72
69689;BME280;56932;38.402;-96.176;2023-04-26T11:50:47;97836.09;;;19.55;27.37
69689;BME280;56932;38.402;-96.176;2023-04-26T11:53:13;97836.93;;;19.94;26.73
69689;BME280;56932;38.402;-96.176;2023-04-26T11:55:39;97840.74;;;20.01;26.86
69689;BME280;56932;38.402;-96.176;2023-04-26T11:58:09;97842.46;;;19.58;27.06
69689;BME280;56932;38.402;-96.176;2023-04-26T12:00:29;97854.49;;;19.21;26.97
69689;BME280;56932;38.402;-96.176;2023-04-26T12:02:55;97859.42;;;19.69;26.71
69689;BME280;56932;38.402;-96.176;2023-04-26T12:05:21;97857.37;;;19.46;26.96
69689;BME280;56932;38.402;-96.176;2023-04-26T12:07:49;97850.60;;;19.78;26.84
69689;BME280;56932;38.402;-96.176;2023-04-26T12:10:16;97853.19;;;19.39;27.01
69689;BME280;56932;38.402;-96.176;2023-04-26T12:12:37;97857.81;;;19.45;27.15
69689;BME280;56932;38.402;-96.176;2023-04-26T12:15:09;97867.91;;;19.63;26.96
69689;BME280;56932;38.402;-96.176;2023-04-26T12:17:28;97870.88;;;20.00;26.80
69689;BME280;56932;38.402;-96.176;2023-04-26T12:19:53;97868.26;;;19.86;26.68
69689;BME280;56932;38.402;-96.176;2023-04-26T12:22:20;97871.91;;;18.94;26.87
69689;BME280;56932;38.402;-96.176;2023-04-26T12:24:44;97877.15;;;19.90;26.62
69689;BME280;56932;38.402;-96.176;2023-04-26T12:27:19;97876.50;;;19.58;27.16
69689;BME280;56932;38.402;-96.176;2023-04-26T12:29:35;97881.30;;;19.94;26.83
69689;BME280;56932;38.402;-96.176;2023-04-26T12:32:01;97882.45;;;19.29;27.45
69689;BME280;56932;38.402;-96.176;2023-04-26T12:34:26;97888.82;;;18.79;27.23
69689;BME280;56932;38.402;-96.176;2023-04-26T12:36:52;97889.76;;;19.60;27.09
69689;BME280;56932;38.402;-96.176;2023-04-26T12:39:17;97886.61;;;18.88;27.57
69689;BME280;56932;38.402;-96.176;2023-04-26T12:41:44;97891.23;;;18.81;27.87
69689;BME280;56932;38.402;-96.176;2023-04-26T12:44:09;97896.41;;;19.11;27.52
69689;BME280;56932;38.402;-96.176;2023-04-26T12:46:34;97908.71;;;19.26;26.99
69689;BME280;56932;38.402;-96.176;2023-04-26T12:48:59;97903.49;;;18.94;27.69
69689;BME280;56932;38.402;-96.176;2023-04-26T12:51:25;97908.79;;;18.16;28.59
69689;BME280;56932;38.402;-96.176;2023-04-26T12:53:50;97909.39;;;19.41;27.33